createdAt,value
2022-07-26T00:00:49.933Z,78.80
2022-07-26T00:03:17.229Z,80.47
2022-07-26T00:05:44.316Z,85.20
2022-07-26T00:08:11.399Z,79.47
2022-07-26T00:10:40.907Z,78.20
2022-07-26T00:13:08.398Z,72.75
2022-07-26T00:15:36.834Z,84.53
2022-07-26T00:18:04.845Z,82.28
2022-07-26T00:20:36.500Z,89.85
2022-07-26T00:23:06.404Z,77.03
2022-07-26T00:25:34.205Z,81.60
2022-07-26T00:28:02.451Z,81.18
2022-07-26T00:30:30.114Z,88.28
2022-07-26T00:32:57.241Z,96.40
2022-07-26T00:35:25.572Z,78.80
2022-07-26T00:37:54.127Z,82.10
2022-07-26T00:40:21.538Z,83.13
2022-07-26T00:42:48.822Z,77.53
2022-07-26T00:45:16.800Z,76.43
2022-07-26T00:47:44.406Z,81.63
2022-07-26T00:50:16.800Z,95.75
2022-07-26T00:52:46.055Z,84.47
2022-07-26T00:55:13.852Z,88.78
2022-07-26T00:57:41.529Z,89.90
2022-07-26T01:00:17.770Z,90.57
2022-07-26T01:02:45.478Z,90.05
2022-07-26T01:05:13.591Z,86.78
2022-07-26T01:07:41.016Z,89.10
2022-07-26T01:10:12.736Z,85.03
2022-07-26T01:12:43.864Z,113.40
2022-07-26T01:15:12.593Z,89.05
2022-07-26T01:17:40.307Z,82.97
2022-07-26T01:20:10.525Z,98.43
2022-07-26T01:22:37.758Z,85.53
2022-07-26T01:25:05.699Z,100.40
2022-07-26T01:27:39.430Z,91.18
2022-07-26T01:30:12.063Z,91.57
2022-07-26T01:32:39.598Z,95.32
2022-07-26T01:35:07.988Z,95.32
2022-07-26T01:37:35.357Z,97.53
2022-07-26T01:40:03.001Z,89.50
2022-07-26T01:42:30.046Z,91.35
2022-07-26T01:44:57.205Z,98.57
2022-07-26T01:47:24.460Z,110.28
2022-07-26T01:49:51.586Z,99.85
2022-07-26T01:52:18.954Z,110.80
2022-07-26T01:54:46.353Z,112.57
2022-07-26T01:57:13.559Z,103.93
2022-07-26T01:59:40.875Z,98.53
2022-07-26T02:02:08.097Z,102.35
2022-07-26T02:04:54.183Z,100.00
2022-07-26T02:07:24.252Z,107.55
2022-07-26T02:09:52.778Z,106.72
2022-07-26T02:12:20.017Z,106.57
2022-07-26T02:14:47.233Z,103.10
2022-07-26T02:17:14.479Z,103.57
2022-07-26T02:19:41.641Z,100.60
2022-07-26T02:22:09.144Z,105.25
2022-07-26T02:24:37.268Z,122.85
2022-07-26T02:27:05.523Z,121.68
2022-07-26T02:29:32.754Z,106.18
2022-07-26T02:32:00.257Z,122.05
2022-07-26T02:34:29.931Z,117.45
2022-07-26T02:36:59.702Z,97.82
2022-07-26T02:39:29.699Z,100.50
2022-07-26T02:41:58.590Z,106.22
2022-07-26T02:44:26.889Z,107.38
2022-07-26T02:46:54.324Z,105.05
2022-07-26T02:49:22.323Z,101.68
2022-07-26T02:51:49.532Z,101.40
2022-07-26T02:54:16.909Z,101.68
2022-07-26T02:56:44.020Z,119.72
2022-07-26T02:59:11.242Z,122.97
2022-07-26T03:01:39.846Z,103.60
2022-07-26T03:04:10.167Z,110.22
2022-07-26T03:09:04.700Z,87.00
2022-07-26T03:11:31.852Z,117.95
2022-07-26T03:13:58.923Z,113.78
2022-07-26T03:16:29.452Z,128.95
2022-07-26T03:18:57.765Z,130.23
2022-07-26T03:21:24.926Z,101.78
2022-07-26T03:23:52.191Z,93.18
2022-07-26T03:26:19.723Z,105.10
2022-07-26T03:28:50.473Z,99.55
2022-07-26T03:31:17.613Z,104.45
2022-07-26T03:33:44.910Z,104.97
2022-07-26T03:36:15.689Z,93.18
2022-07-26T03:38:43.803Z,98.38
2022-07-26T03:41:13.423Z,95.63
2022-07-26T03:43:41.144Z,127.55
2022-07-26T03:46:08.566Z,105.70
2022-07-26T03:48:36.021Z,112.20
2022-07-26T03:51:03.312Z,109.78
2022-07-26T03:53:30.541Z,102.15
2022-07-26T03:56:16.148Z,93.82
2022-07-26T03:58:43.393Z,99.28
2022-07-26T04:01:10.445Z,104.90
2022-07-26T04:03:37.509Z,99.95
2022-07-26T04:06:05.366Z,92.75
2022-07-26T04:08:33.366Z,98.45
2022-07-26T04:11:00.418Z,98.93
2022-07-26T04:13:27.671Z,115.45
2022-07-26T04:15:54.765Z,100.65
2022-07-26T04:18:22.373Z,90.30
2022-07-26T04:20:51.972Z,106.30
2022-07-26T04:23:19.123Z,99.03
2022-07-26T04:25:46.212Z,94.05
2022-07-26T04:28:14.002Z,97.90
2022-07-26T04:30:41.683Z,85.60
2022-07-26T04:33:09.354Z,95.30
2022-07-26T04:35:36.512Z,94.35
2022-07-26T04:38:04.276Z,93.38
2022-07-26T04:40:33.683Z,93.30
2022-07-26T04:43:02.167Z,93.47
2022-07-26T04:45:29.989Z,100.10
2022-07-26T04:47:57.623Z,93.85
2022-07-26T04:50:25.971Z,83.05
2022-07-26T04:52:53.113Z,90.10
2022-07-26T04:55:20.321Z,93.82
2022-07-26T04:57:48.639Z,90.03
2022-07-26T05:00:23.022Z,95.32
2022-07-26T05:02:56.621Z,97.35
2022-07-26T05:05:25.010Z,83.00
2022-07-26T05:07:58.404Z,85.20
2022-07-26T05:10:37.337Z,86.28
2022-07-26T05:13:05.872Z,88.10
2022-07-26T05:15:35.447Z,83.90
2022-07-26T05:18:06.705Z,82.07
2022-07-26T05:20:35.265Z,77.60
2022-07-26T05:23:02.611Z,95.25
2022-07-26T05:25:30.064Z,89.63
2022-07-26T05:27:57.187Z,93.57
2022-07-26T05:30:24.586Z,77.20
2022-07-26T05:32:51.732Z,82.60
2022-07-26T05:35:18.914Z,83.95
2022-07-26T05:37:46.107Z,84.63
2022-07-26T05:40:14.826Z,91.07
2022-07-26T05:42:41.926Z,93.68
2022-07-26T05:45:09.459Z,85.18
2022-07-26T05:47:36.976Z,79.85
2022-07-26T05:50:05.919Z,109.32
2022-07-26T05:52:33.053Z,84.78
2022-07-26T05:55:00.220Z,100.72
2022-07-26T05:57:27.587Z,96.90
2022-07-26T05:59:55.766Z,86.05
2022-07-26T06:02:22.979Z,104.57
2022-07-26T06:04:50.126Z,107.07
2022-07-26T06:07:17.289Z,111.38
2022-07-26T06:09:44.614Z,98.63
2022-07-26T06:12:11.750Z,108.13
2022-07-26T06:14:38.923Z,99.88
2022-07-26T06:17:06.093Z,91.07
2022-07-26T06:19:33.587Z,89.60
2022-07-26T06:22:00.968Z,82.32
2022-07-26T06:24:28.141Z,80.50
2022-07-26T06:26:58.124Z,89.75
2022-07-26T06:29:32.852Z,84.50
2022-07-26T06:32:00.202Z,93.90
2022-07-26T06:34:27.482Z,93.40
2022-07-26T06:36:54.589Z,93.85
2022-07-26T06:39:21.758Z,117.22
2022-07-26T06:41:49.191Z,106.15
2022-07-26T06:44:22.980Z,110.97
2022-07-26T06:46:50.325Z,111.78
2022-07-26T06:49:22.258Z,138.90
2022-07-26T06:51:50.195Z,116.13
2022-07-26T06:54:17.554Z,108.68
2022-07-26T06:56:44.700Z,117.10
2022-07-26T06:59:11.760Z,103.53
2022-07-26T07:01:58.459Z,115.60
2022-07-26T07:04:26.161Z,91.25
2022-07-26T07:06:53.333Z,97.28
2022-07-26T07:09:23.165Z,76.93
2022-07-26T07:11:56.235Z,75.53
2022-07-26T07:14:23.480Z,77.63
2022-07-26T07:16:50.606Z,77.03
2022-07-26T07:19:17.810Z,79.97
2022-07-26T07:21:44.808Z,84.38
2022-07-26T07:24:12.141Z,82.90
2022-07-26T07:26:39.410Z,78.80
2022-07-26T07:29:06.809Z,79.55
2022-07-26T07:31:48.125Z,81.22
2022-07-26T07:34:19.490Z,77.97
2022-07-26T07:36:47.124Z,78.93
2022-07-26T07:39:17.342Z,79.95
2022-07-26T07:41:46.121Z,82.85
2022-07-26T07:44:13.512Z,77.40
2022-07-26T07:46:40.651Z,93.65
2022-07-26T07:49:08.367Z,77.32
2022-07-26T07:51:36.200Z,99.53
2022-07-26T07:54:06.004Z,86.95
2022-07-26T07:56:33.984Z,93.20
2022-07-26T07:59:01.192Z,88.70
2022-07-26T08:01:40.543Z,100.55
2022-07-26T08:04:12.672Z,86.15
2022-07-26T08:06:40.798Z,107.38
2022-07-26T08:09:09.695Z,93.47
2022-07-26T08:11:41.888Z,112.97
2022-07-26T08:14:10.313Z,109.88
2022-07-26T08:16:38.877Z,121.55
2022-07-26T08:19:07.738Z,114.70
2022-07-26T08:21:36.657Z,125.05
2022-07-26T08:24:03.935Z,106.07
2022-07-26T08:26:31.028Z,105.28
2022-07-26T08:28:59.865Z,98.72
2022-07-26T08:31:28.970Z,121.88
2022-07-26T08:33:56.533Z,120.18
2022-07-26T08:36:24.248Z,89.32
2022-07-26T08:38:52.676Z,90.90
2022-07-26T08:41:20.031Z,97.80
2022-07-26T08:43:53.227Z,84.25
2022-07-26T08:46:25.939Z,89.85
2022-07-26T08:48:56.825Z,77.00
2022-07-26T08:51:25.369Z,67.07
2022-07-26T08:54:05.417Z,77.13
2022-07-26T08:59:06.369Z,64.38
2022-07-26T09:01:33.734Z,72.53
2022-07-26T09:04:31.640Z,71.55
2022-07-26T09:07:12.137Z,58.97
2022-07-26T09:09:56.658Z,63.42
2022-07-26T09:12:25.797Z,64.40
2022-07-26T09:14:53.827Z,64.63
2022-07-26T09:17:22.858Z,65.07
2022-07-26T09:20:14.016Z,58.58
2022-07-26T09:23:08.312Z,53.80
2022-07-26T09:25:37.851Z,48.75
2022-07-26T09:28:21.732Z,49.17
2022-07-26T09:30:57.974Z,46.92
2022-07-26T09:33:26.612Z,51.40
2022-07-26T09:36:03.059Z,46.00
2022-07-26T09:38:41.679Z,39.22
2022-07-26T09:41:38.195Z,42.72
2022-07-26T09:44:19.104Z,42.22
2022-07-26T09:46:57.750Z,43.53
2022-07-26T09:49:40.246Z,42.70
2022-07-26T09:52:28.232Z,41.75
2022-07-26T09:55:04.299Z,44.38
2022-07-26T09:57:35.220Z,45.80
2022-07-26T10:00:05.888Z,38.60
2022-07-26T10:02:35.131Z,36.50
2022-07-26T10:05:02.310Z,38.47
2022-07-26T10:07:29.618Z,53.83
2022-07-26T10:10:13.181Z,60.55
2022-07-26T10:12:44.276Z,66.63
2022-07-26T10:15:42.852Z,63.80
2022-07-26T10:18:31.934Z,83.05
2022-07-26T10:20:59.624Z,79.30
2022-07-26T10:23:39.459Z,77.63
2022-07-26T10:26:09.943Z,69.88
2022-07-26T10:28:40.334Z,61.20
2022-07-26T10:31:29.649Z,65.85
2022-07-26T10:33:59.660Z,56.97
2022-07-26T10:36:47.732Z,49.72
2022-07-26T10:39:16.501Z,46.55
2022-07-26T10:41:57.137Z,50.72
2022-07-26T10:44:34.504Z,49.13
2022-07-26T10:47:07.764Z,55.45
2022-07-26T10:49:43.524Z,45.10
2022-07-26T10:52:19.574Z,45.28
2022-07-26T10:55:04.566Z,53.53
2022-07-26T10:57:40.518Z,48.42
2022-07-26T11:00:13.457Z,44.55
2022-07-26T11:02:43.537Z,52.78
2022-07-26T11:05:16.452Z,51.47
2022-07-26T11:07:55.396Z,60.00
2022-07-26T11:10:34.571Z,48.95
2022-07-26T11:13:01.538Z,21.05
2022-07-26T11:15:28.751Z,17.83
2022-07-26T11:18:16.836Z,11.15
2022-07-26T11:20:46.695Z,9.70
2022-07-26T11:23:25.178Z,8.20
2022-07-26T11:26:11.555Z,9.43
2022-07-26T11:28:48.806Z,7.40
2022-07-26T11:31:17.786Z,5.72
2022-07-26T11:33:50.934Z,6.60
2022-07-26T11:36:31.110Z,5.95
2022-07-26T11:38:58.829Z,5.60
2022-07-26T11:41:34.655Z,6.50
2022-07-26T11:44:03.955Z,5.22
2022-07-26T11:46:39.474Z,6.15
2022-07-26T11:49:41.511Z,5.22
2022-07-26T11:52:12.264Z,5.78
2022-07-26T11:54:46.063Z,5.13
2022-07-26T11:57:14.908Z,4.85
2022-07-26T11:59:45.057Z,5.35
2022-07-26T12:02:12.607Z,5.22
2022-07-26T12:04:42.604Z,4.97
2022-07-26T12:07:12.250Z,5.50
2022-07-26T12:09:43.135Z,5.95
2022-07-26T12:12:19.789Z,7.63
2022-07-26T12:15:02.067Z,6.57
2022-07-26T12:17:35.262Z,6.28
2022-07-26T12:20:17.849Z,7.85
2022-07-26T12:23:05.088Z,5.57
2022-07-26T12:25:32.436Z,7.10
2022-07-26T12:27:59.533Z,8.50
2022-07-26T12:30:30.694Z,11.75
2022-07-26T12:33:02.270Z,12.45
2022-07-26T12:35:33.558Z,10.95
2022-07-26T12:38:00.901Z,15.88
2022-07-26T12:40:40.172Z,17.98
2022-07-26T12:43:07.141Z,13.18
2022-07-26T12:45:35.599Z,19.08
2022-07-26T12:48:07.356Z,11.18
2022-07-26T12:50:34.491Z,15.63
2022-07-26T12:53:07.102Z,13.35
2022-07-26T12:55:35.000Z,12.07
2022-07-26T12:58:02.239Z,13.10
2022-07-26T13:00:29.943Z,15.63
2022-07-26T13:02:58.077Z,17.65
2022-07-26T13:05:25.139Z,10.15
2022-07-26T13:07:52.489Z,15.52
2022-07-26T13:10:33.056Z,11.38
2022-07-26T13:13:01.015Z,12.07
2022-07-26T13:15:36.068Z,12.27
2022-07-26T13:18:08.830Z,24.60
2022-07-26T13:20:39.455Z,13.98
2022-07-26T13:25:41.115Z,5.05
2022-07-26T13:28:09.351Z,9.60
2022-07-26T13:30:39.256Z,8.30
2022-07-26T13:33:07.116Z,11.57
2022-07-26T13:35:34.247Z,12.50
2022-07-26T13:38:01.192Z,15.68
2022-07-26T13:40:31.651Z,17.33
2022-07-26T13:42:59.420Z,24.08
2022-07-26T13:45:32.226Z,39.03
2022-07-26T13:47:59.751Z,57.83
2022-07-26T13:50:28.192Z,79.93
2022-07-26T13:52:56.974Z,74.20
2022-07-26T13:55:25.569Z,77.65
2022-07-26T13:57:56.118Z,67.47
2022-07-26T14:00:26.015Z,64.25
2022-07-26T14:02:53.806Z,79.25
2022-07-26T14:05:20.901Z,63.70
2022-07-26T14:07:48.003Z,65.93
2022-07-26T14:10:15.990Z,59.60
2022-07-26T14:12:43.118Z,54.72
2022-07-26T14:15:15.234Z,72.47
2022-07-26T14:17:47.369Z,57.78
2022-07-26T14:20:17.152Z,68.18
2022-07-26T14:22:44.976Z,51.83
2022-07-26T14:25:12.124Z,52.47
2022-07-26T14:27:39.208Z,63.15
2022-07-26T14:30:06.984Z,59.30
2022-07-26T14:32:35.261Z,72.93
2022-07-26T14:35:02.629Z,65.03
2022-07-26T14:37:43.411Z,67.90
2022-07-26T14:40:15.717Z,48.22
2022-07-26T14:42:43.491Z,54.78
2022-07-26T14:45:11.036Z,58.65
2022-07-26T14:47:38.334Z,58.80
2022-07-26T14:50:07.876Z,60.85
2022-07-26T14:52:43.511Z,67.40
2022-07-26T14:55:12.097Z,52.10
2022-07-26T14:57:40.476Z,58.42
2022-07-26T15:00:15.909Z,55.22
2022-07-26T15:02:45.775Z,47.88
2022-07-26T15:05:13.896Z,49.53
2022-07-26T15:07:42.080Z,54.42
2022-07-26T15:10:12.073Z,52.83
2022-07-26T15:12:40.468Z,37.95
2022-07-26T15:15:08.728Z,41.05
2022-07-26T15:17:36.425Z,47.30
2022-07-26T15:20:05.588Z,39.97
2022-07-26T15:22:32.817Z,45.25
2022-07-26T15:24:59.874Z,40.72
2022-07-26T15:27:29.903Z,46.58
2022-07-26T15:30:03.540Z,40.10
2022-07-26T15:32:33.457Z,39.72
2022-07-26T15:35:00.593Z,41.25
2022-07-26T15:37:28.280Z,38.85
2022-07-26T15:40:15.877Z,34.65
2022-07-26T15:42:45.696Z,32.83
2022-07-26T15:45:13.699Z,21.00
2022-07-26T15:48:05.491Z,29.48
2022-07-26T15:50:28.938Z,24.73
2022-07-26T15:52:56.008Z,31.33
2022-07-26T15:55:23.246Z,30.02
2022-07-26T15:57:50.357Z,23.60
2022-07-26T16:00:17.952Z,24.90
2022-07-26T16:02:45.565Z,25.67
2022-07-26T16:05:12.895Z,24.83
2022-07-26T16:07:41.721Z,25.10
2022-07-26T16:10:12.656Z,24.27
2022-07-26T16:12:41.537Z,23.23
2022-07-26T16:15:10.267Z,20.55
2022-07-26T16:17:37.557Z,23.80
2022-07-26T16:20:07.106Z,17.98
2022-07-26T16:22:34.716Z,19.77
2022-07-26T16:25:01.840Z,18.88
2022-07-26T16:27:29.956Z,19.77
2022-07-26T16:29:57.036Z,16.42
2022-07-26T16:32:24.406Z,19.58
2022-07-26T16:34:51.604Z,20.88
2022-07-26T16:37:18.837Z,21.48
2022-07-26T16:39:46.015Z,30.38
2022-07-26T16:42:14.160Z,37.92
2022-07-26T16:44:47.856Z,35.13
2022-07-26T16:47:40.419Z,36.90
2022-07-26T16:50:10.869Z,48.10
2022-07-26T16:55:07.708Z,40.92
2022-07-26T16:57:35.538Z,50.42
2022-07-26T17:00:10.243Z,75.13
2022-07-26T17:02:38.351Z,71.05
2022-07-26T17:05:07.498Z,72.93
2022-07-26T17:07:38.627Z,64.55
2022-07-26T17:10:08.148Z,65.95
2022-07-26T17:12:35.501Z,61.60
2022-07-26T17:15:02.518Z,48.90
2022-07-26T17:17:29.563Z,49.97
2022-07-26T17:19:56.611Z,41.25
2022-07-26T17:22:23.990Z,42.97
2022-07-26T17:24:51.233Z,38.78
2022-07-26T17:27:18.328Z,38.45
2022-07-26T17:29:45.685Z,42.40
2022-07-26T17:32:12.762Z,42.42
2022-07-26T17:34:39.836Z,39.22
2022-07-26T17:37:10.042Z,42.45
2022-07-26T17:39:52.718Z,36.40
2022-07-26T17:42:22.783Z,22.27
2022-07-26T17:44:50.589Z,28.40
2022-07-26T17:47:28.574Z,32.63
2022-07-26T17:50:13.942Z,31.93
2022-07-26T17:52:47.334Z,29.52
2022-07-26T17:55:15.982Z,31.65
2022-07-26T17:57:43.089Z,38.78
2022-07-26T18:00:11.060Z,37.40
2022-07-26T18:02:38.135Z,39.08
2022-07-26T18:05:05.464Z,35.60
2022-07-26T18:07:32.860Z,41.05
2022-07-26T18:10:00.906Z,42.50
2022-07-26T18:12:28.165Z,47.70
2022-07-26T18:14:55.219Z,35.42
2022-07-26T18:17:22.404Z,39.25
2022-07-26T18:19:49.912Z,39.42
2022-07-26T18:22:16.984Z,36.70
2022-07-26T18:24:44.173Z,39.60
2022-07-26T18:27:11.173Z,42.35
2022-07-26T18:29:38.527Z,56.40
2022-07-26T18:32:05.822Z,122.93
2022-07-26T18:34:32.996Z,103.50
2022-07-26T18:37:00.095Z,109.47
2022-07-26T18:39:32.815Z,101.22
2022-07-26T18:42:01.150Z,110.00
2022-07-26T18:44:28.170Z,101.93
2022-07-26T18:46:56.322Z,99.65
2022-07-26T18:49:30.823Z,94.47
2022-07-26T18:52:01.705Z,93.22
2022-07-26T18:54:32.670Z,89.65
2022-07-26T18:56:59.871Z,90.65
2022-07-26T18:59:26.926Z,88.53
2022-07-26T19:01:53.976Z,86.15
2022-07-26T19:04:21.717Z,92.20
2022-07-26T19:06:49.784Z,107.15
2022-07-26T19:09:17.080Z,91.93
2022-07-26T19:11:47.134Z,99.45
2022-07-26T19:14:14.775Z,108.10
2022-07-26T19:16:41.873Z,102.53
2022-07-26T19:19:09.254Z,98.78
2022-07-26T19:21:36.716Z,114.07
2022-07-26T19:24:03.938Z,119.95
2022-07-26T19:26:31.055Z,131.77
2022-07-26T19:28:58.427Z,121.50
2022-07-26T19:31:25.554Z,123.35
2022-07-26T19:33:52.626Z,126.25
2022-07-26T19:36:25.584Z,138.02
2022-07-26T19:38:55.875Z,141.02
2022-07-26T19:41:23.295Z,150.13
2022-07-26T19:43:50.197Z,138.13
2022-07-26T19:46:17.238Z,140.25
2022-07-26T19:48:45.373Z,140.40
2022-07-26T19:51:12.658Z,127.13
2022-07-26T19:53:39.842Z,135.13
2022-07-26T19:56:07.860Z,127.68
2022-07-26T19:58:35.912Z,122.03
2022-07-26T20:01:04.945Z,125.55
2022-07-26T20:03:32.299Z,122.75
2022-07-26T20:06:00.822Z,104.95
2022-07-26T20:08:27.848Z,90.25
2022-07-26T20:10:54.906Z,120.95
2022-07-26T20:13:21.896Z,114.45
2022-07-26T20:15:49.057Z,97.60
2022-07-26T20:18:19.540Z,101.85
2022-07-26T20:23:13.437Z,88.85
2022-07-26T20:25:40.533Z,97.13
2022-07-26T20:28:07.652Z,106.03
2022-07-26T20:30:34.792Z,118.10
2022-07-26T20:33:01.805Z,88.65
2022-07-26T20:35:32.334Z,119.47
2022-07-26T20:40:28.938Z,78.32
2022-07-26T20:42:56.128Z,90.15
2022-07-26T20:45:25.964Z,105.35
2022-07-26T20:47:54.412Z,103.75
2022-07-26T20:50:23.351Z,93.25
2022-07-26T20:52:51.277Z,102.63
2022-07-26T20:55:19.034Z,95.95
2022-07-26T20:57:47.100Z,87.60
2022-07-26T21:00:15.345Z,117.82
2022-07-26T21:02:42.724Z,103.03
2022-07-26T21:05:10.559Z,114.40
2022-07-26T21:07:55.135Z,97.57
2022-07-26T21:10:25.352Z,90.00
2022-07-26T21:12:53.144Z,125.40
2022-07-26T21:15:20.350Z,103.72
2022-07-26T21:17:47.317Z,92.95
2022-07-26T21:20:15.150Z,99.15
2022-07-26T21:22:42.285Z,96.35
2022-07-26T21:25:09.612Z,109.07
2022-07-26T21:27:37.621Z,104.75
2022-07-26T21:30:07.152Z,127.50
2022-07-26T21:32:34.659Z,99.03
2022-07-26T21:35:01.834Z,120.70
2022-07-26T21:37:29.039Z,112.63
2022-07-26T21:39:56.420Z,101.07
2022-07-26T21:42:28.006Z,118.47
2022-07-26T21:44:55.273Z,105.47
2022-07-26T21:47:22.251Z,104.28
2022-07-26T21:49:49.487Z,132.77
2022-07-26T21:52:16.512Z,112.55
2022-07-26T21:54:43.628Z,127.72
2022-07-26T21:57:10.794Z,107.70
2022-07-26T21:59:39.108Z,110.60
2022-07-26T22:02:06.487Z,101.40
2022-07-26T22:04:33.679Z,100.47
2022-07-26T22:07:00.777Z,121.50
2022-07-26T22:09:27.936Z,109.03
2022-07-26T22:11:55.075Z,104.03
2022-07-26T22:14:22.327Z,104.63
2022-07-26T22:16:49.690Z,108.32
2022-07-26T22:19:16.905Z,107.80
2022-07-26T22:21:44.118Z,101.30
2022-07-26T22:24:11.131Z,110.70
2022-07-26T22:26:40.523Z,103.32
2022-07-26T22:29:09.368Z,127.75
2022-07-26T22:31:36.830Z,109.95
2022-07-26T22:34:04.039Z,113.35
2022-07-26T22:36:31.291Z,100.07
2022-07-26T22:38:58.347Z,107.18
2022-07-26T22:41:25.454Z,126.25
2022-07-26T22:43:53.153Z,99.60
2022-07-26T22:46:29.395Z,104.03
2022-07-26T22:48:56.948Z,111.88
2022-07-26T22:51:24.141Z,114.05
2022-07-26T22:53:51.844Z,98.47
2022-07-26T22:56:19.908Z,105.95
2022-07-26T22:58:47.229Z,102.13
2022-07-26T23:01:16.518Z,118.55
2022-07-26T23:03:44.510Z,111.18
2022-07-26T23:06:29.552Z,96.72
2022-07-26T23:08:58.963Z,105.50
2022-07-26T23:11:25.955Z,117.28
2022-07-26T23:13:59.222Z,114.22
2022-07-26T23:16:27.024Z,95.35
2022-07-26T23:18:54.317Z,101.15
2022-07-26T23:21:21.363Z,112.90
2022-07-26T23:23:48.514Z,106.25
2022-07-26T23:26:15.631Z,103.55
2022-07-26T23:28:42.790Z,114.38
2022-07-26T23:31:11.915Z,112.03
2022-07-26T23:33:52.482Z,114.93
2022-07-26T23:36:28.629Z,120.10
2022-07-26T23:38:58.127Z,114.65
2022-07-26T23:41:26.205Z,106.47
2022-07-26T23:43:54.593Z,113.35
2022-07-26T23:46:22.213Z,107.22
2022-07-26T23:48:50.455Z,102.40
2022-07-26T23:51:19.585Z,110.00
2022-07-26T23:53:47.618Z,111.90
2022-07-26T23:56:15.622Z,108.93
2022-07-26T23:58:44.091Z,123.35
